sensor_id;sensor_type;location;lat;lon;timestamp;P1;durP1;ratioP1;P2;durP2;ratioP2
49900;SDS011;35789;48.414;12.768;2023-03-31T00:00:00;5.3;;;2.7;;
49900;SDS011;35789;48.414;12.768;2023-03-31T00:05:00;5.9;;;2.6;;
49900;SDS011;35789;48.414;12.768;2023-03-31T00:10:00;5.9;;;2.6;;
49900;SDS011;35789;48.414;12.768;2023-03-31T00:15:00;5.9;;;2.6;;
49900;SDS011;35789;48.414;12.768;2023-03-31T00:20:00;5.9;;;2.6;;
49900;SDS011;35789;48.414;12.768;2023-03-31T00:25:00;5.9;;;2.6;;
49900;SDS011;35789;48.414;12.768;2023-03-31T00:30:00;5.9;;;2.6;;
49900;SDS011;35789;48.414;12.768;2023-03-31T00:35:00;8.1;;;2.4;;
49900;SDS011;35789;48.414;12.768;2023-03-31T00:40:00;8.1;;;2.4;;
49900;SDS011;35789;48.414;12.768;2023-03-31T00:50:00;8.1;;;2.4;;
49900;SDS011;35789;48.414;12.768;2023-03-31T00:55:05;8.1;;;2.4;;
49900;SDS011;35789;48.414;12.768;2023-03-31T01:00:04;8.1;;;2.4;;
49900;SDS011;35789;48.414;12.768;2023-03-31T01:05:00;4.2;;;1.7;;
49900;SDS011;35789;48.414;12.768;2023-03-31T01:10:01;4.2;;;1.7;;
49900;SDS011;35789;48.414;12.768;2023-03-31T01:15:02;4.2;;;1.7;;
49900;SDS011;35789;48.414;12.768;2023-03-31T01:20:08;4.2;;;1.7;;
49900;SDS011;35789;48.414;12.768;2023-03-31T01:25:16;4.2;;;1.7;;
49900;SDS011;35789;48.414;12.768;2023-03-31T01:30:15;4.2;;;1.7;;
49900;SDS011;35789;48.414;12.768;2023-03-31T01:35:15;3.6;;;1.4;;
49900;SDS011;35789;48.414;12.768;2023-03-31T01:40:13;3.6;;;1.4;;
49900;SDS011;35789;48.414;12.768;2023-03-31T01:45:06;3.6;;;1.4;;
49900;SDS011;35789;48.414;12.768;2023-03-31T01:50:03;3.6;;;1.4;;
49900;SDS011;35789;48.414;12.768;2023-03-31T01:55:03;3.6;;;1.4;;
49900;SDS011;35789;48.414;12.768;2023-03-31T02:00:02;3.6;;;1.4;;
49900;SDS011;35789;48.414;12.768;2023-03-31T02:05:05;3.7;;;1.6;;
49900;SDS011;35789;48.414;12.768;2023-03-31T02:10:03;3.7;;;1.6;;
49900;SDS011;35789;48.414;12.768;2023-03-31T02:15:03;3.7;;;1.6;;
49900;SDS011;35789;48.414;12.768;2023-03-31T02:20:02;3.7;;;1.6;;
49900;SDS011;35789;48.414;12.768;2023-03-31T02:25:01;3.7;;;1.6;;
49900;SDS011;35789;48.414;12.768;2023-03-31T02:30:00;3.7;;;1.6;;
49900;SDS011;35789;48.414;12.768;2023-03-31T02:35:01;3.7;;;1.4;;
49900;SDS011;35789;48.414;12.768;2023-03-31T02:40:05;3.7;;;1.4;;
49900;SDS011;35789;48.414;12.768;2023-03-31T02:45:01;3.7;;;1.4;;
49900;SDS011;35789;48.414;12.768;2023-03-31T02:50:02;3.7;;;1.4;;
49900;SDS011;35789;48.414;12.768;2023-03-31T02:55:12;3.7;;;1.4;;
49900;SDS011;35789;48.414;12.768;2023-03-31T03:00:05;3.7;;;1.4;;
49900;SDS011;35789;48.414;12.768;2023-03-31T03:05:11;3.9;;;1.5;;
49900;SDS011;35789;48.414;12.768;2023-03-31T03:10:05;3.9;;;1.5;;
49900;SDS011;35789;48.414;12.768;2023-03-31T03:15:04;3.9;;;1.5;;
49900;SDS011;35789;48.414;12.768;2023-03-31T03:20:03;3.9;;;1.5;;
49900;SDS011;35789;48.414;12.768;2023-03-31T03:25:00;3.9;;;1.5;;
49900;SDS011;35789;48.414;12.768;2023-03-31T03:30:00;3.9;;;1.5;;
49900;SDS011;35789;48.414;12.768;2023-03-31T03:35:01;4.3;;;1.8;;
49900;SDS011;35789;48.414;12.768;2023-03-31T03:40:00;4.3;;;1.8;;
49900;SDS011;35789;48.414;12.768;2023-03-31T03:45:00;4.3;;;1.8;;
49900;SDS011;35789;48.414;12.768;2023-03-31T03:50:00;4.3;;;1.8;;
49900;SDS011;35789;48.414;12.768;2023-03-31T03:55:00;4.3;;;1.8;;
49900;SDS011;35789;48.414;12.768;2023-03-31T04:00:00;4.3;;;1.8;;
49900;SDS011;35789;48.414;12.768;2023-03-31T04:05:00;4.1;;;1.4;;
49900;SDS011;35789;48.414;12.768;2023-03-31T04:10:00;4.1;;;1.4;;
49900;SDS011;35789;48.414;12.768;2023-03-31T04:15:00;4.1;;;1.4;;
49900;SDS011;35789;48.414;12.768;2023-03-31T04:20:01;4.1;;;1.4;;
49900;SDS011;35789;48.414;12.768;2023-03-31T04:25:01;4.1;;;1.4;;
49900;SDS011;35789;48.414;12.768;2023-03-31T04:30:00;4.1;;;1.4;;
49900;SDS011;35789;48.414;12.768;2023-03-31T04:35:00;7.7;;;3.3;;
49900;SDS011;35789;48.414;12.768;2023-03-31T04:40:00;7.7;;;3.3;;
49900;SDS011;35789;48.414;12.768;2023-03-31T04:45:00;7.7;;;3.3;;
49900;SDS011;35789;48.414;12.768;2023-03-31T04:50:00;7.7;;;3.3;;
49900;SDS011;35789;48.414;12.768;2023-03-31T04:55:00;7.7;;;3.3;;
49900;SDS011;35789;48.414;12.768;2023-03-31T05:00:00;7.7;;;3.3;;
49900;SDS011;35789;48.414;12.768;2023-03-31T05:05:00;6.1;;;2.8;;
49900;SDS011;35789;48.414;12.768;2023-03-31T05:10:00;6.1;;;2.8;;
49900;SDS011;35789;48.414;12.768;2023-03-31T05:15:00;6.1;;;2.8;;
49900;SDS011;35789;48.414;12.768;2023-03-31T05:20:00;6.1;;;2.8;;
49900;SDS011;35789;48.414;12.768;2023-03-31T05:25:00;6.1;;;2.8;;
49900;SDS011;35789;48.414;12.768;2023-03-31T05:30:01;6.1;;;2.8;;
49900;SDS011;35789;48.414;12.768;2023-03-31T05:35:00;8.0;;;4.2;;
49900;SDS011;35789;48.414;12.768;2023-03-31T05:40:00;8.0;;;4.2;;
49900;SDS011;35789;48.414;12.768;2023-03-31T05:45:00;8.0;;;4.2;;
49900;SDS011;35789;48.414;12.768;2023-03-31T05:50:00;8.0;;;4.2;;
49900;SDS011;35789;48.414;12.768;2023-03-31T05:55:00;8.0;;;4.2;;
49900;SDS011;35789;48.414;12.768;2023-03-31T06:00:00;12.7;;;6.0;;
49900;SDS011;35789;48.414;12.768;2023-03-31T06:05:00;12.7;;;6.0;;
49900;SDS011;35789;48.414;12.768;2023-03-31T06:10:00;12.7;;;6.0;;
49900;SDS011;35789;48.414;12.768;2023-03-31T06:15:00;12.7;;;6.0;;
49900;SDS011;35789;48.414;12.768;2023-03-31T06:20:00;12.7;;;6.0;;
49900;SDS011;35789;48.414;12.768;2023-03-31T06:25:00;12.7;;;6.0;;
49900;SDS011;35789;48.414;12.768;2023-03-31T06:30:00;6.2;;;3.7;;
49900;SDS011;35789;48.414;12.768;2023-03-31T06:35:00;6.2;;;3.7;;
49900;SDS011;35789;48.414;12.768;2023-03-31T06:40:01;6.2;;;3.7;;
49900;SDS011;35789;48.414;12.768;2023-03-31T06:45:00;6.2;;;3.7;;
49900;SDS011;35789;48.414;12.768;2023-03-31T06:50:00;6.2;;;3.7;;
49900;SDS011;35789;48.414;12.768;2023-03-31T06:55:00;6.2;;;3.7;;
49900;SDS011;35789;48.414;12.768;2023-03-31T07:00:00;10.9;;;4.9;;
49900;SDS011;35789;48.414;12.768;2023-03-31T07:05:00;10.9;;;4.9;;
49900;SDS011;35789;48.414;12.768;2023-03-31T07:10:00;10.9;;;4.9;;
49900;SDS011;35789;48.414;12.768;2023-03-31T07:15:00;10.9;;;4.9;;
49900;SDS011;35789;48.414;12.768;2023-03-31T07:20:00;10.9;;;4.9;;
49900;SDS011;35789;48.414;12.768;2023-03-31T07:25:00;10.9;;;4.9;;
49900;SDS011;35789;48.414;12.768;2023-03-31T07:30:00;8.8;;;4.8;;
49900;SDS011;35789;48.414;12.768;2023-03-31T07:35:00;8.8;;;4.8;;
49900;SDS011;35789;48.414;12.768;2023-03-31T07:40:00;8.8;;;4.8;;
49900;SDS011;35789;48.414;12.768;2023-03-31T07:45:00;8.8;;;4.8;;
49900;SDS011;35789;48.414;12.768;2023-03-31T07:50:00;8.8;;;4.8;;
49900;SDS011;35789;48.414;12.768;2023-03-31T07:55:00;8.8;;;4.8;;
49900;SDS011;35789;48.414;12.768;2023-03-31T08:00:00;7.8;;;3.2;;
49900;SDS011;35789;48.414;12.768;2023-03-31T08:05:00;7.8;;;3.2;;
49900;SDS011;35789;48.414;12.768;2023-03-31T08:10:03;7.8;;;3.2;;
49900;SDS011;35789;48.414;12.768;2023-03-31T08:15:00;7.8;;;3.2;;
49900;SDS011;35789;48.414;12.768;2023-03-31T08:20:00;7.8;;;3.2;;
49900;SDS011;35789;48.414;12.768;2023-03-31T08:25:00;7.8;;;3.2;;
49900;SDS011;35789;48.414;12.768;2023-03-31T08:30:00;7.1;;;3.5;;
49900;SDS011;35789;48.414;12.768;2023-03-31T08:35:00;7.1;;;3.5;;
49900;SDS011;35789;48.414;12.768;2023-03-31T08:40:00;7.1;;;3.5;;
49900;SDS011;35789;48.414;12.768;2023-03-31T08:45:04;7.1;;;3.5;;
49900;SDS011;35789;48.414;12.768;2023-03-31T08:50:04;7.1;;;3.5;;
49900;SDS011;35789;48.414;12.768;2023-03-31T08:55:02;7.1;;;3.5;;
49900;SDS011;35789;48.414;12.768;2023-03-31T09:00:00;5.7;;;2.9;;
49900;SDS011;35789;48.414;12.768;2023-03-31T09:05:13;5.7;;;2.9;;
49900;SDS011;35789;48.414;12.768;2023-03-31T09:10:09;5.7;;;2.9;;
49900;SDS011;35789;48.414;12.768;2023-03-31T09:15:03;5.7;;;2.9;;
49900;SDS011;35789;48.414;12.768;2023-03-31T09:20:03;5.7;;;2.9;;
49900;SDS011;35789;48.414;12.768;2023-03-31T09:25:04;5.7;;;2.9;;
49900;SDS011;35789;48.414;12.768;2023-03-31T09:30:02;5.8;;;2.3;;
49900;SDS011;35789;48.414;12.768;2023-03-31T09:35:12;5.8;;;2.3;;
49900;SDS011;35789;48.414;12.768;2023-03-31T09:40:03;5.8;;;2.3;;
49900;SDS011;35789;48.414;12.768;2023-03-31T09:45:00;5.8;;;2.3;;
49900;SDS011;35789;48.414;12.768;2023-03-31T09:50:00;5.8;;;2.3;;
49900;SDS011;35789;48.414;12.768;2023-03-31T09:55:02;5.8;;;2.3;;
49900;SDS011;35789;48.414;12.768;2023-03-31T10:00:02;8.0;;;3.5;;
49900;SDS011;35789;48.414;12.768;2023-03-31T10:05:00;8.0;;;3.5;;
49900;SDS011;35789;48.414;12.768;2023-03-31T10:10:01;8.0;;;3.5;;
49900;SDS011;35789;48.414;12.768;2023-03-31T10:15:14;8.0;;;3.5;;
49900;SDS011;35789;48.414;12.768;2023-03-31T10:20:11;8.0;;;3.5;;
49900;SDS011;35789;48.414;12.768;2023-03-31T10:25:08;8.0;;;3.5;;
49900;SDS011;35789;48.414;12.768;2023-03-31T10:30:02;6.1;;;2.9;;
49900;SDS011;35789;48.414;12.768;2023-03-31T10:35:04;6.1;;;2.9;;
49900;SDS011;35789;48.414;12.768;2023-03-31T10:40:02;6.1;;;2.9;;
49900;SDS011;35789;48.414;12.768;2023-03-31T10:45:11;6.1;;;2.9;;
49900;SDS011;35789;48.414;12.768;2023-03-31T10:50:08;6.1;;;2.9;;
49900;SDS011;35789;48.414;12.768;2023-03-31T10:55:00;6.1;;;2.9;;
49900;SDS011;35789;48.414;12.768;2023-03-31T11:00:05;4.9;;;2.3;;
49900;SDS011;35789;48.414;12.768;2023-03-31T11:05:06;4.9;;;2.3;;
49900;SDS011;35789;48.414;12.768;2023-03-31T11:15:07;4.9;;;2.3;;
49900;SDS011;35789;48.414;12.768;2023-03-31T11:20:09;4.9;;;2.3;;
49900;SDS011;35789;48.414;12.768;2023-03-31T11:25:11;4.9;;;2.3;;
49900;SDS011;35789;48.414;12.768;2023-03-31T11:30:03;6.4;;;2.6;;
49900;SDS011;35789;48.414;12.768;2023-03-31T11:35:12;6.4;;;2.6;;
49900;SDS011;35789;48.414;12.768;2023-03-31T11:40:10;6.4;;;2.6;;
49900;SDS011;35789;48.414;12.768;2023-03-31T11:45:04;6.4;;;2.6;;
49900;SDS011;35789;48.414;12.768;2023-03-31T11:50:05;6.4;;;2.6;;
49900;SDS011;35789;48.414;12.768;2023-03-31T11:55:04;6.4;;;2.6;;
49900;SDS011;35789;48.414;12.768;2023-03-31T12:00:05;5.1;;;2.7;;
49900;SDS011;35789;48.414;12.768;2023-03-31T12:05:02;5.1;;;2.7;;
49900;SDS011;35789;48.414;12.768;2023-03-31T12:10:04;5.1;;;2.7;;
49900;SDS011;35789;48.414;12.768;2023-03-31T12:15:06;5.1;;;2.7;;
49900;SDS011;35789;48.414;12.768;2023-03-31T12:20:03;5.1;;;2.7;;
49900;SDS011;35789;48.414;12.768;2023-03-31T12:25:00;5.1;;;2.7;;
49900;SDS011;35789;48.414;12.768;2023-03-31T12:30:02;7.3;;;1.9;;
49900;SDS011;35789;48.414;12.768;2023-03-31T12:35:03;7.3;;;1.9;;
49900;SDS011;35789;48.414;12.768;2023-03-31T12:40:09;7.3;;;1.9;;
49900;SDS011;35789;48.414;12.768;2023-03-31T12:45:05;7.3;;;1.9;;
49900;SDS011;35789;48.414;12.768;2023-03-31T12:50:15;7.3;;;1.9;;
49900;SDS011;35789;48.414;12.768;2023-03-31T12:55:08;7.3;;;1.9;;
49900;SDS011;35789;48.414;12.768;2023-03-31T13:00:19;3.4;;;1.3;;
49900;SDS011;35789;48.414;12.768;2023-03-31T13:15:03;3.4;;;1.3;;
49900;SDS011;35789;48.414;12.768;2023-03-31T13:20:14;3.4;;;1.3;;
49900;SDS011;35789;48.414;12.768;2023-03-31T13:30:00;5.2;;;1.5;;
49900;SDS011;35789;48.414;12.768;2023-03-31T13:35:02;5.2;;;1.5;;
49900;SDS011;35789;48.414;12.768;2023-03-31T13:40:17;5.2;;;1.5;;
49900;SDS011;35789;48.414;12.768;2023-03-31T13:45:08;5.2;;;1.5;;
49900;SDS011;35789;48.414;12.768;2023-03-31T13:50:14;5.2;;;1.5;;
49900;SDS011;35789;48.414;12.768;2023-03-31T13:55:12;5.2;;;1.5;;
49900;SDS011;35789;48.414;12.768;2023-03-31T14:00:12;3.8;;;1.5;;
49900;SDS011;35789;48.414;12.768;2023-03-31T14:05:21;3.8;;;1.5;;
49900;SDS011;35789;48.414;12.768;2023-03-31T14:10:00;3.8;;;1.5;;
49900;SDS011;35789;48.414;12.768;2023-03-31T14:15:01;3.8;;;1.5;;
49900;SDS011;35789;48.414;12.768;2023-03-31T14:20:11;3.8;;;1.5;;
49900;SDS011;35789;48.414;12.768;2023-03-31T14:25:08;3.8;;;1.5;;
49900;SDS011;35789;48.414;12.768;2023-03-31T14:30:05;7.7;;;1.8;;
49900;SDS011;35789;48.414;12.768;2023-03-31T14:35:16;7.7;;;1.8;;
49900;SDS011;35789;48.414;12.768;2023-03-31T14:40:00;7.7;;;1.8;;
49900;SDS011;35789;48.414;12.768;2023-03-31T14:45:03;7.7;;;1.8;;
49900;SDS011;35789;48.414;12.768;2023-03-31T14:50:02;7.7;;;1.8;;
49900;SDS011;35789;48.414;12.768;2023-03-31T14:55:00;7.7;;;1.8;;
49900;SDS011;35789;48.414;12.768;2023-03-31T15:00:02;4.2;;;1.3;;
49900;SDS011;35789;48.414;12.768;2023-03-31T15:05:02;4.2;;;1.3;;
49900;SDS011;35789;48.414;12.768;2023-03-31T15:10:01;4.2;;;1.3;;
49900;SDS011;35789;48.414;12.768;2023-03-31T15:15:02;4.2;;;1.3;;
49900;SDS011;35789;48.414;12.768;2023-03-31T15:20:16;4.2;;;1.3;;
49900;SDS011;35789;48.414;12.768;2023-03-31T15:25:00;4.2;;;1.3;;
49900;SDS011;35789;48.414;12.768;2023-03-31T15:30:02;2.6;;;0.7;;
49900;SDS011;35789;48.414;12.768;2023-03-31T15:35:01;2.6;;;0.7;;
49900;SDS011;35789;48.414;12.768;2023-03-31T15:40:01;2.6;;;0.7;;
49900;SDS011;35789;48.414;12.768;2023-03-31T15:50:08;2.6;;;0.7;;
49900;SDS011;35789;48.414;12.768;2023-03-31T15:55:04;2.6;;;0.7;;
49900;SDS011;35789;48.414;12.768;2023-03-31T16:00:01;4.9;;;1.1;;
49900;SDS011;35789;48.414;12.768;2023-03-31T16:05:00;4.9;;;1.1;;
49900;SDS011;35789;48.414;12.768;2023-03-31T16:10:03;4.9;;;1.1;;
49900;SDS011;35789;48.414;12.768;2023-03-31T16:15:03;4.9;;;1.1;;
49900;SDS011;35789;48.414;12.768;2023-03-31T16:20:03;4.9;;;1.1;;
49900;SDS011;35789;48.414;12.768;2023-03-31T16:25:00;4.9;;;1.1;;
49900;SDS011;35789;48.414;12.768;2023-03-31T16:30:06;3.3;;;0.9;;
49900;SDS011;35789;48.414;12.768;2023-03-31T16:35:02;3.3;;;0.9;;
49900;SDS011;35789;48.414;12.768;2023-03-31T16:40:00;3.3;;;0.9;;
49900;SDS011;35789;48.414;12.768;2023-03-31T16:45:00;3.3;;;0.9;;
49900;SDS011;35789;48.414;12.768;2023-03-31T16:50:00;3.3;;;0.9;;
49900;SDS011;35789;48.414;12.768;2023-03-31T16:55:00;3.3;;;0.9;;
49900;SDS011;35789;48.414;12.768;2023-03-31T17:00:00;3.5;;;0.9;;
49900;SDS011;35789;48.414;12.768;2023-03-31T17:05:00;3.5;;;0.9;;
49900;SDS011;35789;48.414;12.768;2023-03-31T17:10:00;3.5;;;0.9;;
49900;SDS011;35789;48.414;12.768;2023-03-31T17:15:00;3.5;;;0.9;;
49900;SDS011;35789;48.414;12.768;2023-03-31T17:20:00;3.5;;;0.9;;
49900;SDS011;35789;48.414;12.768;2023-03-31T17:25:00;3.5;;;0.9;;
49900;SDS011;35789;48.414;12.768;2023-03-31T17:30:00;12.2;;;4.9;;
49900;SDS011;35789;48.414;12.768;2023-03-31T17:35:00;12.2;;;4.9;;
49900;SDS011;35789;48.414;12.768;2023-03-31T17:40:00;12.2;;;4.9;;
49900;SDS011;35789;48.414;12.768;2023-03-31T17:45:00;12.2;;;4.9;;
49900;SDS011;35789;48.414;12.768;2023-03-31T17:50:00;12.2;;;4.9;;
49900;SDS011;35789;48.414;12.768;2023-03-31T17:55:00;12.2;;;4.9;;
49900;SDS011;35789;48.414;12.768;2023-03-31T18:00:00;3.4;;;1.0;;
49900;SDS011;35789;48.414;12.768;2023-03-31T18:05:00;3.4;;;1.0;;
49900;SDS011;35789;48.414;12.768;2023-03-31T18:10:00;3.4;;;1.0;;
49900;SDS011;35789;48.414;12.768;2023-03-31T18:15:00;3.4;;;1.0;;
49900;SDS011;35789;48.414;12.768;2023-03-31T18:20:00;3.4;;;1.0;;
49900;SDS011;35789;48.414;12.768;2023-03-31T18:25:00;3.4;;;1.0;;
49900;SDS011;35789;48.414;12.768;2023-03-31T18:30:00;3.0;;;0.7;;
49900;SDS011;35789;48.414;12.768;2023-03-31T18:35:00;3.0;;;0.7;;
49900;SDS011;35789;48.414;12.768;2023-03-31T18:40:00;3.0;;;0.7;;
49900;SDS011;35789;48.414;12.768;2023-03-31T18:45:00;3.0;;;0.7;;
49900;SDS011;35789;48.414;12.768;2023-03-31T18:50:00;3.0;;;0.7;;
49900;SDS011;35789;48.414;12.768;2023-03-31T18:55:00;3.0;;;0.7;;
49900;SDS011;35789;48.414;12.768;2023-03-31T19:00:00;2.2;;;0.5;;
49900;SDS011;35789;48.414;12.768;2023-03-31T19:05:00;2.2;;;0.5;;
49900;SDS011;35789;48.414;12.768;2023-03-31T19:10:00;2.2;;;0.5;;
49900;SDS011;35789;48.414;12.768;2023-03-31T19:15:00;2.2;;;0.5;;
49900;SDS011;35789;48.414;12.768;2023-03-31T19:20:00;2.2;;;0.5;;
49900;SDS011;35789;48.414;12.768;2023-03-31T19:25:00;2.2;;;0.5;;
49900;SDS011;35789;48.414;12.768;2023-03-31T19:30:00;1.9;;;0.4;;
49900;SDS011;35789;48.414;12.768;2023-03-31T19:35:00;1.9;;;0.4;;
49900;SDS011;35789;48.414;12.768;2023-03-31T19:40:00;1.9;;;0.4;;
49900;SDS011;35789;48.414;12.768;2023-03-31T19:45:00;1.9;;;0.4;;
49900;SDS011;35789;48.414;12.768;2023-03-31T19:50:00;1.9;;;0.4;;
49900;SDS011;35789;48.414;12.768;2023-03-31T19:55:00;1.9;;;0.4;;
49900;SDS011;35789;48.414;12.768;2023-03-31T20:00:00;2.6;;;0.5;;
49900;SDS011;35789;48.414;12.768;2023-03-31T20:05:00;2.6;;;0.5;;
49900;SDS011;35789;48.414;12.768;2023-03-31T20:10:00;2.6;;;0.5;;
49900;SDS011;35789;48.414;12.768;2023-03-31T20:15:00;2.6;;;0.5;;
49900;SDS011;35789;48.414;12.768;2023-03-31T20:20:00;2.6;;;0.5;;
49900;SDS011;35789;48.414;12.768;2023-03-31T20:25:00;2.6;;;0.5;;
49900;SDS011;35789;48.414;12.768;2023-03-31T20:30:00;2.0;;;0.4;;
49900;SDS011;35789;48.414;12.768;2023-03-31T20:35:00;2.0;;;0.4;;
49900;SDS011;35789;48.414;12.768;2023-03-31T20:40:00;2.0;;;0.4;;
49900;SDS011;35789;48.414;12.768;2023-03-31T20:45:00;2.0;;;0.4;;
49900;SDS011;35789;48.414;12.768;2023-03-31T20:50:01;2.0;;;0.4;;
49900;SDS011;35789;48.414;12.768;2023-03-31T20:55:00;2.0;;;0.4;;
49900;SDS011;35789;48.414;12.768;2023-03-31T21:00:00;1.9;;;0.4;;
49900;SDS011;35789;48.414;12.768;2023-03-31T21:05:00;1.9;;;0.4;;
49900;SDS011;35789;48.414;12.768;2023-03-31T21:10:00;1.9;;;0.4;;
49900;SDS011;35789;48.414;12.768;2023-03-31T21:15:00;1.9;;;0.4;;
49900;SDS011;35789;48.414;12.768;2023-03-31T21:20:00;1.9;;;0.4;;
49900;SDS011;35789;48.414;12.768;2023-03-31T21:25:00;2.6;;;0.5;;
49900;SDS011;35789;48.414;12.768;2023-03-31T21:30:00;2.6;;;0.5;;
49900;SDS011;35789;48.414;12.768;2023-03-31T21:35:00;2.6;;;0.5;;
49900;SDS011;35789;48.414;12.768;2023-03-31T21:40:00;2.6;;;0.5;;
49900;SDS011;35789;48.414;12.768;2023-03-31T21:45:00;2.6;;;0.5;;
49900;SDS011;35789;48.414;12.768;2023-03-31T21:50:00;2.6;;;0.5;;
49900;SDS011;35789;48.414;12.768;2023-03-31T21:55:00;7.9;;;1.1;;
49900;SDS011;35789;48.414;12.768;2023-03-31T22:00:00;7.9;;;1.1;;
49900;SDS011;35789;48.414;12.768;2023-03-31T22:05:00;7.9;;;1.1;;
49900;SDS011;35789;48.414;12.768;2023-03-31T22:10:00;7.9;;;1.1;;
49900;SDS011;35789;48.414;12.768;2023-03-31T22:15:00;7.9;;;1.1;;
49900;SDS011;35789;48.414;12.768;2023-03-31T22:20:00;7.9;;;1.1;;
49900;SDS011;35789;48.414;12.768;2023-03-31T22:25:00;2.4;;;0.5;;
49900;SDS011;35789;48.414;12.768;2023-03-31T22:30:01;2.4;;;0.5;;
49900;SDS011;35789;48.414;12.768;2023-03-31T22:35:00;2.4;;;0.5;;
49900;SDS011;35789;48.414;12.768;2023-03-31T22:40:00;2.4;;;0.5;;
49900;SDS011;35789;48.414;12.768;2023-03-31T22:45:00;2.4;;;0.5;;
49900;SDS011;35789;48.414;12.768;2023-03-31T22:50:00;2.4;;;0.5;;
49900;SDS011;35789;48.414;12.768;2023-03-31T22:55:01;2.0;;;0.5;;
49900;SDS011;35789;48.414;12.768;2023-03-31T23:00:00;2.0;;;0.5;;
49900;SDS011;35789;48.414;12.768;2023-03-31T23:05:00;2.0;;;0.5;;
49900;SDS011;35789;48.414;12.768;2023-03-31T23:10:00;2.0;;;0.5;;
49900;SDS011;35789;48.414;12.768;2023-03-31T23:15:00;2.0;;;0.5;;
49900;SDS011;35789;48.414;12.768;2023-03-31T23:20:00;2.0;;;0.5;;
49900;SDS011;35789;48.414;12.768;2023-03-31T23:25:00;3.3;;;1.0;;
49900;SDS011;35789;48.414;12.768;2023-03-31T23:30:00;3.3;;;1.0;;
49900;SDS011;35789;48.414;12.768;2023-03-31T23:35:00;3.3;;;1.0;;
49900;SDS011;35789;48.414;12.768;2023-03-31T23:40:00;3.3;;;1.0;;
49900;SDS011;35789;48.414;12.768;2023-03-31T23:45:00;3.3;;;1.0;;
49900;SDS011;35789;48.414;12.768;2023-03-31T23:50:00;3.3;;;1.0;;
49900;SDS011;35789;48.414;12.768;2023-03-31T23:55:00;4.1;;;0.6;;
